Time;durP1;ratioP1;P1;durP2;ratioP2;P2;SDS_P1;SDS_P2;PMS_P1;PMS_P2;Temp;Humidity;BMP_temperature;BMP_pressure;BME280_temperature;BME280_humidity;BME280_pressure;Samples;Min_cycle;Max_cycle;Signal;HPM_P1;HPM_P2
2024/01/01 00:00:21;;;;;;;6.23;4.50;;;8.40;99.90;;;;;;5037758;28;20313;-90
2024/01/01 00:02:47;;;;;;;6.40;4.10;;;8.30;99.90;;;;;;5037489;28;20217;-92
2024/01/01 00:05:13;;;;;;;7.33;5.03;;;8.60;99.90;;;;;;5039111;28;20174;-90
2024/01/01 00:07:39;;;;;;;5.50;4.97;;;8.30;99.90;;;;;;5039106;28;20704;-92
2024/01/01 00:10:05;;;;;;;8.30;5.93;;;8.30;99.90;;;;;;5021527;28;20214;-89
2024/01/01 00:12:35;;;;;;;6.37;4.73;;;8.40;99.90;;;;;;5055858;28;20217;-91
2024/01/01 00:15:00;;;;;;;8.37;6.40;;;8.40;99.90;;;;;;5038654;28;20228;-92
2024/01/01 00:17:26;;;;;;;7.27;6.03;;;8.40;99.90;;;;;;5039357;28;20206;-92
2024/01/01 00:19:52;;;;;;;5.97;5.47;;;8.60;99.90;;;;;;5037854;28;20178;-93
2024/01/01 00:22:18;;;;;;;6.43;4.07;;;8.40;99.90;;;;;;5036751;28;20225;-89
2024/01/01 00:24:44;;;;;;;4.13;3.83;;;8.60;99.90;;;;;;5037634;28;20676;-91
2024/01/01 00:27:09;;;;;;;5.47;4.77;;;8.60;99.90;;;;;;5036760;28;20670;-90
2024/01/01 00:29:38;;;;;;;4.23;3.43;;;8.30;99.90;;;;;;5053508;28;20178;-92
2024/01/01 00:32:05;;;;;;;5.33;4.27;;;8.40;99.90;;;;;;5038001;28;20178;-91
2024/01/01 00:34:31;;;;;;;3.77;2.90;;;8.40;99.90;;;;;;5039044;28;20224;-91
2024/01/01 00:36:57;;;;;;;4.37;3.17;;;8.40;99.90;;;;;;5038147;28;20356;-91
2024/01/01 00:39:23;;;;;;;5.70;2.90;;;8.20;99.90;;;;;;5036769;28;20241;-93
2024/01/01 00:41:49;;;;;;;2.27;1.60;;;8.20;99.90;;;;;;5053847;28;20316;-92
2024/01/01 00:44:15;;;;;;;4.63;3.57;;;8.20;99.90;;;;;;5054932;28;20625;-92
2024/01/01 00:46:41;;;;;;;1.57;1.20;;;8.30;99.90;;;;;;5037184;28;20261;-92
2024/01/01 00:49:06;;;;;;;3.13;2.90;;;8.10;99.90;;;;;;5036734;28;20775;-90
2024/01/01 00:51:32;;;;;;;2.60;2.40;;;8.30;99.90;;;;;;5020137;28;20742;-90
2024/01/01 00:53:58;;;;;;;3.67;2.10;;;8.30;99.90;;;;;;5020037;28;20673;-88
2024/01/01 00:56:23;;;;;;;3.60;2.80;;;8.30;99.90;;;;;;5010237;28;20202;-93
2024/01/01 00:58:49;;;;;;;3.53;3.23;;;8.20;99.90;;;;;;5021185;28;20239;-92
2024/01/01 01:01:15;;;;;;;2.80;2.57;;;8.30;99.90;;;;;;5020463;28;20209;-92
2024/01/01 01:03:41;;;;;;;8.07;4.80;;;8.10;99.90;;;;;;5036368;28;20213;-91
2024/01/01 01:06:07;;;;;;;8.20;3.33;;;8.10;99.90;;;;;;5053088;28;20228;-90
2024/01/01 01:08:32;;;;;;;5.17;3.33;;;8.10;99.90;;;;;;5036413;28;20217;-90
2024/01/01 01:10:58;;;;;;;1.07;1.00;;;8.20;99.90;;;;;;5036809;28;20201;-90
2024/01/01 01:13:24;;;;;;;4.00;2.20;;;8.20;99.90;;;;;;5053761;28;20221;-91
2024/01/01 01:15:50;;;;;;;3.30;1.57;;;8.00;99.90;;;;;;5019688;28;20225;-90
2024/01/01 01:18:16;;;;;;;2.23;1.87;;;8.00;99.90;;;;;;5019694;28;20217;-91
2024/01/01 01:20:42;;;;;;;4.17;3.67;;;8.20;99.90;;;;;;5019892;28;20225;-90
2024/01/01 01:23:08;;;;;;;2.37;2.13;;;7.90;99.90;;;;;;5037114;28;20525;-91
2024/01/01 01:25:34;;;;;;;1.87;1.77;;;7.90;99.90;;;;;;5035176;28;20627;-92
2024/01/01 01:27:59;;;;;;;2.00;1.90;;;8.00;99.90;;;;;;5052729;28;20242;-92
2024/01/01 01:30:25;;;;;;;1.13;1.13;;;8.00;99.90;;;;;;5035962;28;20214;-93
2024/01/01 01:32:51;;;;;;;1.43;1.30;;;7.90;99.90;;;;;;5035958;28;20225;-92
2024/01/01 01:35:17;;;;;;;4.27;2.40;;;7.80;99.90;;;;;;5019442;28;20218;-90
2024/01/01 01:37:45;;;;;;;2.27;2.13;;;7.80;99.90;;;;;;5036371;28;20339;-90
2024/01/01 01:40:12;;;;;;;4.13;3.33;;;8.00;99.90;;;;;;5035412;28;20238;-92
2024/01/01 01:42:38;;;;;;;2.87;2.33;;;8.00;99.90;;;;;;5035230;28;20217;-90
2024/01/01 01:45:04;;;;;;;6.10;3.90;;;7.90;99.90;;;;;;5051820;28;20218;-92
2024/01/01 01:47:30;;;;;;;5.37;3.53;;;7.90;99.90;;;;;;5035240;28;20178;-91
2024/01/01 01:49:56;;;;;;;14.53;8.77;;;8.10;99.90;;;;;;5019836;28;20207;-92
2024/01/01 01:52:22;;;;;;;10.23;7.93;;;8.20;99.90;;;;;;5019505;28;20225;-93
2024/01/01 01:54:51;;;;;;;5.63;4.57;;;8.20;99.90;;;;;;5035786;28;20218;-93
2024/01/01 01:57:17;;;;;;;13.20;9.97;;;8.20;99.90;;;;;;5035421;28;20221;-92
2024/01/01 01:59:44;;;;;;;5.97;5.37;;;8.10;99.90;;;;;;5035303;28;20218;-89
2024/01/01 02:02:11;;;;;;;13.83;10.00;;;8.10;99.90;;;;;;5036128;28;20174;-91
2024/01/01 02:04:37;;;;;;;8.83;7.97;;;8.10;99.90;;;;;;5053313;28;20229;-90
2024/01/01 02:07:03;;;;;;;14.03;10.40;;;8.10;99.90;;;;;;5035458;28;20229;-88
2024/01/01 02:09:30;;;;;;;5.80;5.27;;;8.20;99.90;;;;;;5051792;28;20214;-91
2024/01/01 02:11:56;;;;;;;9.80;8.90;;;8.20;99.90;;;;;;5035261;28;20217;-91
2024/01/01 02:14:24;;;;;;;7.20;6.30;;;7.90;99.90;;;;;;5019283;28;20556;-91
2024/01/01 02:16:50;;;;;;;9.93;7.93;;;8.20;99.90;;;;;;5035901;28;20240;-92
2024/01/01 02:19:24;;;;;;;14.47;10.07;;;8.20;99.90;;;;;;5035564;28;20214;-91
2024/01/01 02:21:51;;;;;;;12.33;8.77;;;8.20;99.90;;;;;;5035404;28;20239;-91
2024/01/01 02:24:17;;;;;;;9.50;6.33;;;7.90;99.90;;;;;;5034226;28;20316;-91
2024/01/01 02:26:44;;;;;;;10.23;7.07;;;8.20;99.90;;;;;;5034486;28;20255;-91
2024/01/01 02:29:10;;;;;;;12.50;8.13;;;8.20;99.90;;;;;;5035666;28;20178;-91
2024/01/01 02:31:36;;;;;;;12.90;7.47;;;8.20;99.90;;;;;;5051303;28;20297;-92
2024/01/01 02:34:02;;;;;;;8.10;6.47;;;7.80;99.90;;;;;;5052575;28;20295;-92
2024/01/01 02:36:29;;;;;;;9.70;8.73;;;7.90;99.90;;;;;;5036530;28;20233;-92
2024/01/01 02:38:55;;;;;;;7.77;5.33;;;8.10;99.90;;;;;;5038242;28;20218;-92
2024/01/01 02:41:21;;;;;;;8.40;5.47;;;8.00;99.90;;;;;;5038551;28;20206;-91
2024/01/01 02:43:46;;;;;;;15.20;7.87;;;8.10;99.90;;;;;;5039305;28;20653;-91
2024/01/01 02:46:12;;;;;;;12.07;6.03;;;8.00;99.90;;;;;;5038816;28;20226;-92
2024/01/01 02:48:38;;;;;;;14.67;6.80;;;7.90;99.90;;;;;;5055471;28;20222;-92
2024/01/01 02:51:04;;;;;;;3.50;3.20;;;8.10;99.90;;;;;;5038811;28;20661;-92
2024/01/01 02:53:32;;;;;;;9.13;5.70;;;7.90;99.90;;;;;;5038714;28;20206;-92
2024/01/01 02:55:58;;;;;;;8.63;6.20;;;7.90;99.90;;;;;;5039459;28;20681;-92
2024/01/01 02:58:24;;;;;;;7.43;5.63;;;8.10;99.90;;;;;;5038973;28;20305;-92
2024/01/01 03:00:50;;;;;;;3.60;3.33;;;7.90;99.90;;;;;;5038552;28;20241;-91
2024/01/01 03:03:15;;;;;;;13.43;4.93;;;8.00;99.90;;;;;;5038776;28;20287;-91
2024/01/01 03:05:43;;;;;;;6.20;4.70;;;8.00;99.90;;;;;;5038598;28;20667;-92
2024/01/01 03:08:10;;;;;;;7.30;4.27;;;8.20;99.90;;;;;;5039105;28;20182;-91
2024/01/01 03:10:35;;;;;;;5.23;4.30;;;7.90;99.90;;;;;;5038500;28;20732;-92
2024/01/01 03:13:01;;;;;;;3.90;3.00;;;7.80;99.90;;;;;;5038986;28;20259;-90
2024/01/01 03:15:27;;;;;;;5.10;3.67;;;7.80;99.90;;;;;;5038618;28;20283;-91
2024/01/01 03:17:54;;;;;;;1.87;1.77;;;8.20;99.90;;;;;;5054849;28;20221;-91
2024/01/01 03:20:19;;;;;;;5.57;4.33;;;8.10;99.90;;;;;;5038360;28;20170;-89
2024/01/01 03:22:45;;;;;;;4.57;3.60;;;7.90;99.90;;;;;;5021953;28;20205;-92
2024/01/01 03:25:11;;;;;;;5.00;3.57;;;8.20;99.90;;;;;;5054839;28;20225;-92
2024/01/01 03:27:38;;;;;;;3.17;2.90;;;8.10;99.90;;;;;;5038237;28;20256;-90
2024/01/01 03:30:08;;;;;;;5.33;2.77;;;7.80;99.90;;;;;;5038631;28;20222;-91
2024/01/01 03:32:35;;;;;;;3.43;3.13;;;7.90;99.90;;;;;;5053762;28;20671;-91
2024/01/01 03:35:02;;;;;;;2.77;2.60;;;8.20;99.90;;;;;;5055546;28;20524;-91
2024/01/01 03:37:28;;;;;;;4.93;3.53;;;8.00;99.90;;;;;;5037945;28;20233;-89
2024/01/01 03:39:54;;;;;;;10.07;3.37;;;8.00;99.90;;;;;;5037386;28;20577;-90
2024/01/01 03:42:20;;;;;;;2.77;2.57;;;8.20;99.90;;;;;;5054281;28;20226;-90
2024/01/01 03:44:46;;;;;;;3.07;2.87;;;8.20;99.90;;;;;;5038093;28;20225;-90
2024/01/01 03:47:12;;;;;;;4.33;2.57;;;8.10;99.90;;;;;;5055222;28;20181;-91
2024/01/01 03:49:39;;;;;;;4.77;1.90;;;8.20;99.90;;;;;;5037875;28;20245;-91
2024/01/01 03:52:05;;;;;;;5.57;3.33;;;7.90;99.90;;;;;;5037585;28;20654;-90
2024/01/01 03:54:31;;;;;;;5.73;2.23;;;7.90;99.90;;;;;;5038069;28;20301;-89
2024/01/01 03:56:57;;;;;;;6.73;5.17;;;8.00;99.90;;;;;;5020982;28;20226;-91
2024/01/01 03:59:23;;;;;;;6.90;3.63;;;7.90;99.90;;;;;;5054223;28;20190;-89
2024/01/01 04:01:48;;;;;;;5.60;5.13;;;7.80;99.90;;;;;;5037964;28;20210;-92
2024/01/01 04:04:14;;;;;;;4.20;2.97;;;7.90;99.90;;;;;;5054256;28;20218;-90
2024/01/01 04:06:40;;;;;;;1.83;1.73;;;8.10;99.90;;;;;;5037432;28;20260;-93
2024/01/01 04:09:06;;;;;;;2.47;2.37;;;7.90;99.90;;;;;;5053761;28;20213;-92
2024/01/01 04:11:34;;;;;;;1.30;1.20;;;8.00;99.90;;;;;;5053864;28;20274;-90
2024/01/01 04:14:00;;;;;;;1.73;1.63;;;8.20;99.90;;;;;;5037706;28;20212;-91
2024/01/01 04:16:25;;;;;;;1.30;1.17;;;8.00;99.90;;;;;;5036951;28;20232;-92
2024/01/01 04:18:51;;;;;;;2.43;1.17;;;8.00;99.90;;;;;;5037038;28;20217;-92
2024/01/01 04:21:17;;;;;;;1.63;1.43;;;8.20;99.90;;;;;;5036732;28;20214;-91
2024/01/01 04:23:43;;;;;;;1.90;1.50;;;8.00;99.90;;;;;;5037036;28;20285;-91
2024/01/01 04:26:09;;;;;;;1.43;1.43;;;8.20;99.90;;;;;;5037884;28;20178;-91
2024/01/01 04:28:34;;;;;;;1.13;0.93;;;8.00;99.90;;;;;;5021023;28;20630;-91
2024/01/01 04:31:00;;;;;;;3.67;2.33;;;8.20;99.90;;;;;;5037684;28;20607;-92
2024/01/01 04:33:26;;;;;;;5.13;1.83;;;8.30;99.90;;;;;;5021332;28;20214;-91
2024/01/01 04:35:52;;;;;;;1.20;1.20;;;8.10;99.90;;;;;;5042160;28;20245;-91
2024/01/01 04:38:18;;;;;;;2.03;1.93;;;8.20;99.90;;;;;;5023285;28;20591;-91
2024/01/01 04:40:43;;;;;;;1.57;1.47;;;8.10;99.90;;;;;;5055844;28;20228;-91
2024/01/01 04:43:09;;;;;;;0.77;0.77;;;8.20;99.90;;;;;;5053757;28;20674;-91
2024/01/01 04:45:37;;;;;;;1.87;1.73;;;8.10;99.90;;;;;;5036681;28;20221;-92
2024/01/01 04:48:04;;;;;;;1.17;1.10;;;8.30;99.90;;;;;;5036790;28;20271;-90
2024/01/01 04:50:34;;;;;;;2.80;1.47;;;8.00;99.90;;;;;;5053723;28;20268;-91
2024/01/01 04:52:59;;;;;;;0.47;0.47;;;8.30;99.90;;;;;;5037043;28;20171;-92
2024/01/01 04:55:25;;;;;;;0.50;0.50;;;8.30;99.90;;;;;;5039513;28;20244;-91
2024/01/01 04:57:51;;;;;;;2.20;1.93;;;8.00;99.90;;;;;;5042331;28;20221;-91
2024/01/01 05:00:17;;;;;;;1.33;1.23;;;8.30;99.90;;;;;;5039814;28;20248;-92
2024/01/01 05:02:42;;;;;;;5.53;0.70;;;8.20;99.90;;;;;;5053864;28;20221;-91
2024/01/01 05:05:08;;;;;;;2.00;0.80;;;8.10;99.90;;;;;;5054099;28;20588;-93
2024/01/01 05:07:36;;;;;;;0.83;0.83;;;8.10;99.90;;;;;;5036468;28;20282;-92
2024/01/01 05:10:02;;;;;;;1.70;0.70;;;8.30;99.90;;;;;;5036221;28;20225;-91
2024/01/01 05:12:28;;;;;;;0.33;0.33;;;8.10;99.90;;;;;;5036477;28;20217;-92
2024/01/01 05:14:54;;;;;;;2.63;0.50;;;8.20;99.90;;;;;;5019840;28;20530;-92
2024/01/01 05:17:19;;;;;;;1.40;0.67;;;8.10;99.90;;;;;;5035619;28;20269;-92
2024/01/01 05:19:45;;;;;;;0.57;0.57;;;8.30;99.90;;;;;;5037068;28;20174;-91
2024/01/01 05:22:11;;;;;;;1.87;1.27;;;8.10;99.90;;;;;;5036599;28;20301;-91
2024/01/01 05:24:37;;;;;;;1.30;0.73;;;8.10;99.90;;;;;;5036183;28;20214;-91
2024/01/01 05:27:03;;;;;;;0.37;0.37;;;8.40;99.90;;;;;;5053846;28;20312;-91
2024/01/01 05:29:30;;;;;;;0.17;0.17;;;8.20;99.90;;;;;;5035414;28;20702;-91
2024/01/01 05:31:56;;;;;;;8.63;2.47;;;8.10;99.90;;;;;;5036957;28;20526;-91
2024/01/01 05:34:24;;;;;;;2.27;0.87;;;8.50;99.90;;;;;;5036103;28;20272;-92
2024/01/01 05:36:49;;;;;;;0.63;0.63;;;8.20;99.90;;;;;;5035660;28;20689;-91
2024/01/01 05:39:15;;;;;;;0.50;0.50;;;8.30;99.90;;;;;;5035476;28;20254;-91
2024/01/01 05:41:41;;;;;;;0.30;0.30;;;8.30;99.90;;;;;;5036250;28;20229;-91
2024/01/01 05:44:08;;;;;;;0.87;0.70;;;8.40;99.90;;;;;;5035829;28;20228;-91
2024/01/01 05:46:34;;;;;;;0.60;0.60;;;8.40;99.90;;;;;;5052279;28;20226;-92
2024/01/01 05:48:59;;;;;;;0.20;0.20;;;8.40;99.90;;;;;;5019400;28;20221;-91
2024/01/01 05:51:25;;;;;;;0.40;0.40;;;8.50;99.90;;;;;;5035680;28;20227;-91
2024/01/01 05:53:51;;;;;;;4.67;0.77;;;8.40;99.90;;;;;;5051745;28;20218;-91
2024/01/01 05:56:16;;;;;;;0.73;0.73;;;8.40;99.90;;;;;;5036316;28;20213;-86
2024/01/01 05:58:42;;;;;;;9.43;1.10;;;8.30;99.90;;;;;;5035771;28;20182;-91
2024/01/01 06:01:09;;;;;;;0.60;0.60;;;8.60;99.90;;;;;;5035314;28;20226;-89
2024/01/01 06:03:35;;;;;;;0.80;0.80;;;8.40;99.90;;;;;;5035820;28;20220;-91
2024/01/01 06:06:00;;;;;;;0.63;0.63;;;8.60;99.90;;;;;;5035321;28;20213;-91
2024/01/01 06:08:26;;;;;;;0.40;0.40;;;8.60;99.90;;;;;;5035235;28;20185;-90
2024/01/01 06:10:52;;;;;;;1.53;1.37;;;8.50;99.90;;;;;;5021905;28;20182;-90
2024/01/01 06:13:18;;;;;;;0.70;0.70;;;8.40;99.90;;;;;;5042420;28;20221;-91
2024/01/01 06:15:44;;;;;;;0.83;0.83;;;8.40;99.90;;;;;;5026019;28;20669;-91
2024/01/01 06:18:11;;;;;;;0.50;0.50;;;8.40;99.90;;;;;;5042271;28;20304;-91
2024/01/01 06:20:36;;;;;;;0.50;0.50;;;8.50;99.90;;;;;;5058567;28;20204;-90
2024/01/01 06:23:03;;;;;;;0.20;0.20;;;8.20;99.90;;;;;;5026110;28;20178;-90
2024/01/01 06:25:28;;;;;;;4.87;1.13;;;8.10;99.90;;;;;;5041882;28;20228;-90
2024/01/01 06:27:57;;;;;;;0.40;0.40;;;8.20;99.90;;;;;;5025688;28;20213;-91
2024/01/01 06:30:22;;;;;;;3.07;0.33;;;8.00;99.90;;;;;;5025963;28;20217;-88
2024/01/01 06:32:48;;;;;;;0.13;0.13;;;8.00;99.90;;;;;;5041619;28;20352;-90
2024/01/01 06:35:14;;;;;;;0.30;0.30;;;8.10;99.90;;;;;;5059021;28;20228;-90
2024/01/01 06:37:40;;;;;;;1.07;1.07;;;7.90;99.90;;;;;;5058213;28;20214;-90
2024/01/01 06:40:07;;;;;;;2.43;0.60;;;7.90;99.90;;;;;;5041929;28;20332;-90
2024/01/01 06:42:33;;;;;;;0.30;0.30;;;7.70;99.90;;;;;;5042194;28;20313;-90
2024/01/01 06:45:09;;;;;;;0.40;0.40;;;7.60;99.90;;;;;;5024845;28;20657;-90
2024/01/01 06:47:35;;;;;;;0.20;0.20;;;7.60;99.90;;;;;;5041606;28;20585;-90
2024/01/01 06:50:01;;;;;;;0.20;0.20;;;7.80;99.90;;;;;;5041888;28;20280;-90
2024/01/01 06:52:27;;;;;;;0.30;0.30;;;7.70;99.90;;;;;;5041656;28;20641;-91
2024/01/01 06:54:52;;;;;;;0.40;0.40;;;7.70;99.90;;;;;;5041538;28;20220;-91
2024/01/01 06:57:18;;;;;;;0.20;0.20;;;7.60;99.90;;;;;;5041138;28;20644;-91
2024/01/01 06:59:44;;;;;;;0.20;0.20;;;7.80;99.90;;;;;;5025461;28;20544;-91
2024/01/01 07:02:10;;;;;;;1.40;1.20;;;7.80;99.90;;;;;;5042349;28;20260;-92
2024/01/01 07:04:36;;;;;;;0.43;0.43;;;7.60;99.90;;;;;;5025193;28;20240;-91
2024/01/01 07:07:03;;;;;;;0.30;0.30;;;7.70;99.90;;;;;;5025163;28;20221;-92
2024/01/01 07:09:28;;;;;;;3.47;0.83;;;7.50;99.90;;;;;;5041122;28;20210;-91
2024/01/01 07:11:57;;;;;;;0.30;0.30;;;7.70;99.90;;;;;;5058031;28;20214;-90
2024/01/01 07:14:23;;;;;;;0.50;0.50;;;7.60;99.90;;;;;;5057620;28;20192;-90
2024/01/01 07:16:52;;;;;;;0.30;0.30;;;7.80;99.90;;;;;;5041685;28;20214;-91
2024/01/01 07:19:18;;;;;;;0.53;0.53;;;7.90;99.90;;;;;;5058882;28;20214;-91
2024/01/01 07:21:43;;;;;;;1.23;0.47;;;7.90;99.90;;;;;;5040017;28;20658;-90
2024/01/01 07:24:09;;;;;;;0.30;0.30;;;7.90;99.90;;;;;;5053429;28;20297;-91
2024/01/01 07:26:35;;;;;;;4.17;0.57;;;7.70;99.90;;;;;;5038058;28;20650;-91
2024/01/01 07:29:01;;;;;;;1.33;0.47;;;7.90;99.90;;;;;;5056057;28;20264;-91
2024/01/01 07:31:26;;;;;;;1.23;0.43;;;8.00;99.90;;;;;;5054633;28;20229;-90
2024/01/01 07:33:52;;;;;;;1.80;0.60;;;8.00;99.90;;;;;;5021002;28;20214;-91
2024/01/01 07:36:18;;;;;;;0.30;0.30;;;7.90;99.90;;;;;;5054024;28;20228;-91
2024/01/01 07:38:44;;;;;;;0.30;0.30;;;8.20;99.90;;;;;;5021534;28;20234;-90
2024/01/01 07:41:09;;;;;;;0.87;0.87;;;8.10;99.90;;;;;;5038384;28;20237;-91
2024/01/01 07:43:35;;;;;;;1.93;0.40;;;8.20;99.90;;;;;;5054316;28;20549;-90
2024/01/01 07:46:01;;;;;;;0.30;0.30;;;8.20;99.90;;;;;;5054172;28;20698;-91
2024/01/01 07:48:27;;;;;;;1.13;0.93;;;8.10;99.90;;;;;;5054132;28;20624;-93
2024/01/01 07:50:52;;;;;;;1.43;0.67;;;8.10;99.90;;;;;;5054024;28;20301;-91
2024/01/01 07:53:18;;;;;;;2.17;1.93;;;8.40;99.90;;;;;;5053865;28;20182;-92
2024/01/01 07:55:44;;;;;;;0.50;0.50;;;8.10;99.90;;;;;;5037953;28;20252;-90
2024/01/01 07:58:10;;;;;;;0.20;0.20;;;8.10;99.90;;;;;;5054189;28;20217;-90
2024/01/01 08:00:36;;;;;;;0.80;0.80;;;8.10;99.90;;;;;;5037749;28;20237;-90
2024/01/01 08:03:01;;;;;;;0.50;0.50;;;8.20;99.90;;;;;;5021191;28;20218;-89
2024/01/01 08:05:27;;;;;;;1.57;1.47;;;8.30;99.90;;;;;;5054058;28;20189;-91
2024/01/01 08:07:53;;;;;;;0.20;0.20;;;8.50;99.90;;;;;;5038251;28;20193;-91
2024/01/01 08:10:19;;;;;;;0.70;0.70;;;8.50;99.90;;;;;;5036985;28;20611;-93
2024/01/01 08:12:44;;;;;;;0.73;0.73;;;8.30;99.90;;;;;;5036908;28;20251;-90
2024/01/01 08:15:10;;;;;;;3.50;1.43;;;8.30;99.90;;;;;;5037012;28;20218;-89
2024/01/01 08:17:36;;;;;;;0.43;0.43;;;8.40;99.90;;;;;;5020148;28;20174;-91
2024/01/01 08:20:02;;;;;;;0.50;0.50;;;8.40;99.90;;;;;;5037230;28;20185;-91
2024/01/01 08:22:28;;;;;;;0.53;0.53;;;8.60;99.90;;;;;;5036827;28;20233;-92
2024/01/01 08:24:53;;;;;;;0.20;0.20;;;8.40;99.90;;;;;;5036595;28;20218;-91
2024/01/01 08:27:19;;;;;;;2.93;0.40;;;8.40;99.90;;;;;;5036601;28;20224;-91
2024/01/01 08:29:45;;;;;;;4.80;1.13;;;8.60;99.90;;;;;;5036454;28;20222;-91
2024/01/01 08:32:10;;;;;;;0.57;0.57;;;8.50;99.90;;;;;;5053688;28;20185;-90
2024/01/01 08:34:36;;;;;;;1.37;1.27;;;8.40;99.90;;;;;;5036511;28;20221;-91
2024/01/01 08:37:04;;;;;;;0.27;0.27;;;8.40;99.90;;;;;;5019747;28;20723;-89
2024/01/01 08:39:30;;;;;;;1.63;1.43;;;8.50;99.90;;;;;;5035761;28;20244;-90
2024/01/01 08:41:56;;;;;;;0.30;0.30;;;8.60;99.90;;;;;;5028920;28;20230;-88
2024/01/01 08:44:22;;;;;;;6.17;0.83;;;8.50;99.90;;;;;;5036202;28;20248;-87
2024/01/01 08:46:48;;;;;;;1.03;1.00;;;8.40;99.90;;;;;;5037262;28;20186;-91
2024/01/01 08:49:14;;;;;;;0.10;0.10;;;8.50;99.90;;;;;;5036646;28;20218;-89
2024/01/01 08:51:40;;;;;;;11.77;0.73;;;8.40;99.90;;;;;;5036321;28;20214;-90
2024/01/01 08:54:07;;;;;;;1.97;1.87;;;8.60;99.90;;;;;;5036889;28;20298;-89
2024/01/01 08:56:33;;;;;;;1.60;0.43;;;8.50;99.90;;;;;;5055722;28;20210;-87
2024/01/01 08:58:59;;;;;;;0.23;0.23;;;8.60;99.90;;;;;;5041435;28;20181;-90
2024/01/01 09:01:25;;;;;;;0.53;0.53;;;8.50;99.90;;;;;;5040698;28;20256;-90
2024/01/01 09:03:51;;;;;;;0.30;0.30;;;8.50;99.90;;;;;;5063151;28;20563;-88
2024/01/01 09:06:17;;;;;;;0.30;0.30;;;8.70;99.90;;;;;;5055018;28;20218;-89
2024/01/01 09:08:43;;;;;;;0.67;0.67;;;8.60;99.90;;;;;;5037365;28;20706;-88
2024/01/01 09:11:09;;;;;;;1.23;0.57;;;8.60;99.90;;;;;;5020314;28;20268;-91
2024/01/01 09:13:35;;;;;;;0.80;0.80;;;8.70;99.90;;;;;;5052535;28;20241;-89
2024/01/01 09:16:01;;;;;;;1.80;0.80;;;8.70;99.90;;;;;;5035836;28;20654;-88
2024/01/01 09:18:27;;;;;;;3.07;1.27;;;8.80;99.90;;;;;;5037654;28;20214;-87
2024/01/01 09:20:53;;;;;;;0.50;0.50;;;8.80;99.90;;;;;;5040198;28;20224;-89
2024/01/01 09:23:18;;;;;;;0.93;0.50;;;8.60;99.90;;;;;;5038981;28;20538;-88
2024/01/01 09:25:44;;;;;;;0.97;0.87;;;8.70;99.90;;;;;;5022531;28;20573;-91
2024/01/01 09:28:10;;;;;;;0.43;0.43;;;8.50;99.90;;;;;;5054209;28;20271;-89
2024/01/01 09:30:36;;;;;;;0.40;0.40;;;8.60;99.90;;;;;;5035957;28;20226;-89
2024/01/01 09:33:02;;;;;;;2.97;2.10;;;8.70;99.90;;;;;;5035753;28;20658;-90
2024/01/01 09:35:28;;;;;;;0.20;0.20;;;8.80;99.90;;;;;;5035604;28;20218;-90
2024/01/01 09:37:54;;;;;;;0.13;0.13;;;8.80;99.90;;;;;;5036253;28;20192;-90
2024/01/01 09:40:23;;;;;;;4.50;1.23;;;8.80;99.90;;;;;;5019042;28;20249;-89
2024/01/01 09:42:50;;;;;;;0.20;0.20;;;8.90;99.90;;;;;;5035373;28;20218;-90
2024/01/01 09:45:16;;;;;;;0.87;0.40;;;9.00;99.90;;;;;;5035327;28;20281;-91
2024/01/01 09:47:43;;;;;;;0.10;0.10;;;9.00;99.90;;;;;;5052120;28;21141;-88
2024/01/01 09:50:10;;;;;;;1.60;0.73;;;9.10;99.90;;;;;;5035904;28;20184;-89
2024/01/01 09:52:36;;;;;;;0.37;0.37;;;9.20;99.90;;;;;;5035775;28;20217;-91
2024/01/01 09:55:03;;;;;;;0.40;0.40;;;9.20;99.90;;;;;;5035746;28;20634;-90
2024/01/01 09:57:29;;;;;;;1.90;1.20;;;9.10;99.90;;;;;;5035628;28;20218;-87
2024/01/01 09:59:54;;;;;;;0.60;0.60;;;9.20;99.90;;;;;;5035177;28;20312;-88
2024/01/01 10:02:24;;;;;;;0.50;0.50;;;9.00;99.90;;;;;;5035438;28;20182;-90
2024/01/01 10:04:50;;;;;;;3.47;1.70;;;9.00;99.90;;;;;;5052248;28;20706;-88
2024/01/01 10:07:28;;;;;;;0.40;0.40;;;8.90;99.90;;;;;;5035018;28;20210;-89
2024/01/01 10:09:54;;;;;;;0.53;0.53;;;9.20;99.90;;;;;;5035061;28;20304;-88
2024/01/01 10:12:23;;;;;;;3.40;1.00;;;9.10;99.90;;;;;;5035065;28;20218;-88
2024/01/01 10:14:50;;;;;;;0.50;0.50;;;9.10;99.90;;;;;;5035065;28;20276;-89
2024/01/01 10:17:17;;;;;;;7.87;1.80;;;9.20;99.90;;;;;;5035487;28;20723;-89
2024/01/01 10:19:53;;;;;;;23.03;1.13;;;9.20;99.90;;;;;;5035400;28;20243;-90
2024/01/01 10:22:19;;;;;;;0.53;0.53;;;9.30;99.90;;;;;;5035332;28;20219;-88
2024/01/01 10:24:55;;;;;;;0.87;0.40;;;9.20;99.90;;;;;;5053138;28;20221;-88
2024/01/01 10:27:22;;;;;;;1.70;1.60;;;9.30;99.90;;;;;;5052710;28;20227;-90
2024/01/01 10:29:48;;;;;;;0.73;0.53;;;9.40;99.90;;;;;;5034575;28;20214;-89
2024/01/01 10:32:16;;;;;;;0.30;0.30;;;9.40;99.90;;;;;;5035754;28;20270;-90
2024/01/01 10:34:48;;;;;;;3.60;0.77;;;9.40;99.90;;;;;;5035278;28;20748;-90
2024/01/01 10:37:15;;;;;;;17.20;1.03;;;9.40;99.90;;;;;;5052383;28;20236;-90
2024/01/01 10:39:43;;;;;;;0.27;0.27;;;9.40;99.90;;;;;;5034814;28;20230;-88
2024/01/01 10:42:10;;;;;;;2.77;0.57;;;9.50;99.90;;;;;;5052606;28;20218;-88
2024/01/01 10:44:36;;;;;;;1.33;1.03;;;9.50;99.90;;;;;;5018816;28;20206;-89
2024/01/01 10:47:07;;;;;;;2.10;1.17;;;9.40;99.90;;;;;;5035564;28;20178;-88
2024/01/01 10:49:33;;;;;;;0.73;0.50;;;9.50;99.90;;;;;;5035270;28;20279;-90
2024/01/01 10:52:08;;;;;;;1.83;0.60;;;9.60;99.90;;;;;;5034870;28;20296;-89
2024/01/01 10:54:58;;;;;;;0.43;0.43;;;9.60;99.90;;;;;;5051636;28;20225;-89
2024/01/01 10:57:49;;;;;;;2.13;0.47;;;9.60;99.90;;;;;;5053575;28;20256;-89
2024/01/01 11:00:53;;;;;;;3.13;1.00;;;9.60;99.90;;;;;;5055839;28;20275;-89
2024/01/01 11:03:19;;;;;;;0.10;0.10;;;9.60;99.90;;;;;;5038030;28;20309;-89
2024/01/01 11:05:47;;;;;;;0.87;0.87;;;9.50;99.90;;;;;;5055390;28;20225;-88
2024/01/01 11:08:26;;;;;;;4.33;0.60;;;9.50;99.90;;;;;;5039577;28;20316;-89
2024/01/01 11:10:55;;;;;;;0.80;0.43;;;9.40;99.90;;;;;;5038306;28;20206;-89
2024/01/01 11:13:27;;;;;;;1.40;0.97;;;9.40;99.90;;;;;;5038328;28;20217;-89
2024/01/01 11:16:00;;;;;;;0.77;0.43;;;9.40;99.90;;;;;;5054825;28;20315;-89
2024/01/01 11:18:39;;;;;;;0.33;0.33;;;9.40;99.90;;;;;;5038244;28;20356;-91
2024/01/01 11:21:07;;;;;;;0.23;0.23;;;9.40;99.90;;;;;;5056090;28;20240;-90
2024/01/01 11:23:40;;;;;;;12.77;1.23;;;9.40;99.90;;;;;;5038459;28;20255;-91
2024/01/01 11:26:26;;;;;;;1.50;0.27;;;9.40;99.90;;;;;;5038885;28;20518;-89
2024/01/01 11:28:53;;;;;;;0.63;0.60;;;9.40;99.90;;;;;;5058172;28;20544;-88
2024/01/01 11:31:19;;;;;;;5.60;1.03;;;9.30;99.90;;;;;;5047857;28;20217;-88
2024/01/01 11:33:44;;;;;;;0.43;0.43;;;9.30;99.90;;;;;;5050925;28;20226;-90
2024/01/01 11:36:11;;;;;;;0.53;0.53;;;9.30;99.90;;;;;;5054828;28;20707;-89
2024/01/01 11:38:39;;;;;;;0.50;0.50;;;9.30;99.90;;;;;;5037576;28;20526;-90
2024/01/01 11:41:06;;;;;;;0.63;0.63;;;9.20;99.90;;;;;;5038198;28;20694;-90
2024/01/01 11:43:33;;;;;;;0.40;0.40;;;9.30;99.90;;;;;;5037972;28;20232;-87
2024/01/01 11:45:59;;;;;;;0.20;0.20;;;9.30;99.90;;;;;;5037862;28;20213;-87
2024/01/01 11:48:25;;;;;;;1.80;1.07;;;9.20;99.90;;;;;;5037741;28;20221;-89
2024/01/01 11:50:53;;;;;;;0.20;0.20;;;9.20;99.90;;;;;;5054275;28;20665;-88
2024/01/01 11:53:19;;;;;;;0.27;0.27;;;9.30;99.90;;;;;;5021252;28;20232;-88
2024/01/01 11:55:45;;;;;;;1.60;0.60;;;9.30;99.90;;;;;;5055207;28;20210;-88
2024/01/01 11:58:12;;;;;;;0.73;0.30;;;9.30;99.90;;;;;;5036640;28;20224;-90
2024/01/01 12:00:39;;;;;;;9.93;1.80;;;9.30;99.90;;;;;;5036911;28;20351;-89
2024/01/01 12:03:05;;;;;;;2.10;0.97;;;9.30;99.90;;;;;;5037135;28;20225;-89
2024/01/01 12:05:32;;;;;;;0.53;0.53;;;9.40;99.90;;;;;;5037014;28;20182;-90
2024/01/01 12:07:59;;;;;;;2.43;1.03;;;9.40;99.90;;;;;;5037354;28;20182;-89
2024/01/01 12:10:27;;;;;;;0.60;0.60;;;9.40;99.90;;;;;;5037209;28;20290;-89
2024/01/01 12:13:00;;;;;;;1.13;1.13;;;9.30;99.90;;;;;;5036900;28;20218;-88
2024/01/01 12:15:30;;;;;;;1.03;1.03;;;9.40;99.90;;;;;;5055013;28;20220;-89
2024/01/01 12:17:56;;;;;;;0.60;0.60;;;9.30;99.90;;;;;;5037424;28;20253;-89
2024/01/01 12:20:25;;;;;;;2.07;1.87;;;9.40;99.90;;;;;;5037160;28;20178;-89
2024/01/01 12:22:53;;;;;;;1.87;0.70;;;9.40;99.90;;;;;;5037780;28;20235;-89
2024/01/01 12:25:21;;;;;;;1.80;0.87;;;9.40;99.90;;;;;;5020598;28;20263;-89
2024/01/01 12:28:04;;;;;;;0.30;0.30;;;9.40;99.90;;;;;;5037011;28;20230;-90
2024/01/01 12:30:31;;;;;;;2.33;2.03;;;9.40;99.90;;;;;;5054884;28;20214;-91
2024/01/01 12:32:57;;;;;;;0.67;0.67;;;9.50;99.90;;;;;;5036940;28;20225;-90
2024/01/01 12:35:24;;;;;;;3.87;1.10;;;9.50;99.90;;;;;;5020949;28;20186;-89
2024/01/01 12:37:50;;;;;;;0.50;0.50;;;9.50;99.90;;;;;;5037755;28;20178;-93
2024/01/01 12:40:16;;;;;;;1.70;0.67;;;9.50;99.90;;;;;;5020176;28;20244;-88
2024/01/01 12:42:43;;;;;;;0.20;0.20;;;9.60;99.90;;;;;;5036716;28;20221;-89
2024/01/01 12:45:09;;;;;;;0.67;0.67;;;9.60;99.90;;;;;;5036272;28;20221;-92
2024/01/01 12:47:35;;;;;;;0.83;0.83;;;9.60;99.90;;;;;;5019985;28;20177;-90
2024/01/01 12:50:00;;;;;;;1.23;0.50;;;9.50;99.90;;;;;;5037537;28;20514;-89
2024/01/01 12:52:26;;;;;;;0.20;0.20;;;9.50;99.90;;;;;;5020137;28;20686;-90